createdAt,value
2019-03-10T00:01:02.905Z,2.77
2019-03-10T00:03:31.212Z,1.87
2019-03-10T00:05:59.529Z,3.20
2019-03-10T00:08:28.349Z,3.57
2019-03-10T00:10:57.317Z,2.13
2019-03-10T00:13:25.662Z,2.47
2019-03-10T00:15:54.501Z,2.80
2019-03-10T00:18:22.877Z,3.17
2019-03-10T00:20:51.703Z,3.10
2019-03-10T00:23:20.638Z,3.23
2019-03-10T00:25:48.961Z,3.30
2019-03-10T00:28:18.126Z,3.00
2019-03-10T00:30:46.944Z,2.13
2019-03-10T00:33:15.853Z,3.50
2019-03-10T00:35:44.701Z,1.97
2019-03-10T00:38:13.767Z,2.90
2019-03-10T00:41:04.233Z,2.80
2019-03-10T00:44:11.594Z,4.10
2019-03-10T00:46:57.866Z,2.83
2019-03-10T00:49:53.429Z,2.27
2019-03-10T00:52:32.241Z,2.70
2019-03-10T00:55:01.007Z,2.63
2019-03-10T00:57:29.805Z,2.47
2019-03-10T01:00:00.545Z,3.57
2019-03-10T01:02:29.174Z,2.70
2019-03-10T01:04:57.485Z,2.70
2019-03-10T01:07:26.305Z,2.67
2019-03-10T01:09:55.065Z,1.97
2019-03-10T01:12:23.453Z,1.87
2019-03-10T01:14:51.896Z,3.17
2019-03-10T01:17:20.839Z,2.63
2019-03-10T01:19:50.525Z,1.90
2019-03-10T01:22:19.693Z,2.83
2019-03-10T01:24:47.999Z,2.60
2019-03-10T01:27:16.753Z,2.77
2019-03-10T01:29:45.126Z,2.67
2019-03-10T01:33:16.691Z,2.97
2019-03-10T01:35:45.296Z,2.20
2019-03-10T01:38:13.717Z,2.37
2019-03-10T01:40:42.709Z,2.60
2019-03-10T01:43:11.618Z,3.13
2019-03-10T01:45:40.104Z,2.33
2019-03-10T01:48:08.881Z,3.00
2019-03-10T01:50:37.172Z,2.27
2019-03-10T01:53:06.004Z,1.80
2019-03-10T01:55:34.742Z,3.30
2019-03-10T01:58:03.493Z,2.50
2019-03-10T02:00:31.862Z,2.23
2019-03-10T02:03:00.633Z,2.20
2019-03-10T02:05:29.505Z,1.97
2019-03-10T02:07:57.813Z,2.30
2019-03-10T02:10:26.715Z,1.97
2019-03-10T02:12:55.024Z,2.23
2019-03-10T02:15:24.110Z,2.40
2019-03-10T02:17:53.201Z,2.43
2019-03-10T02:20:21.973Z,1.93
2019-03-10T02:22:50.821Z,3.70
2019-03-10T02:25:19.657Z,2.17
2019-03-10T02:27:48.414Z,1.67
2019-03-10T02:30:18.599Z,2.07
2019-03-10T02:32:47.502Z,2.00
2019-03-10T02:35:15.818Z,3.10
2019-03-10T02:37:44.742Z,2.57
2019-03-10T02:40:13.555Z,3.17
2019-03-10T02:42:41.930Z,1.97
2019-03-10T02:45:10.928Z,2.00
2019-03-10T02:47:39.745Z,2.67
2019-03-10T02:50:08.930Z,1.90
2019-03-10T02:52:37.769Z,2.20
2019-03-10T02:55:07.017Z,2.53
2019-03-10T02:57:35.317Z,2.27
2019-03-10T03:00:05.154Z,2.43
2019-03-10T03:02:33.934Z,1.87
2019-03-10T03:05:02.768Z,1.90
2019-03-10T03:07:31.061Z,2.03
2019-03-10T03:09:59.380Z,1.97
2019-03-10T03:12:27.674Z,2.17
2019-03-10T03:14:55.986Z,2.03
2019-03-10T03:17:24.729Z,1.80
2019-03-10T03:19:53.754Z,2.27
2019-03-10T03:22:22.490Z,2.00
2019-03-10T03:24:51.242Z,2.20
2019-03-10T03:27:19.977Z,2.30
2019-03-10T03:29:48.282Z,2.37
2019-03-10T03:32:17.043Z,1.90
2019-03-10T03:34:45.346Z,2.40
2019-03-10T03:37:15.125Z,1.90
2019-03-10T03:39:45.248Z,1.73
2019-03-10T03:42:13.553Z,2.23
2019-03-10T03:44:41.862Z,2.17
2019-03-10T03:47:10.707Z,1.53
2019-03-10T03:49:39.697Z,2.07
2019-03-10T03:52:08.433Z,2.00
2019-03-10T03:54:37.430Z,1.63
2019-03-10T03:57:06.181Z,1.87
2019-03-10T03:59:35.178Z,1.67
2019-03-10T04:02:10.206Z,2.00
2019-03-10T04:04:38.518Z,2.30
2019-03-10T04:07:06.839Z,2.00
2019-03-10T04:09:35.145Z,2.47
2019-03-10T04:12:03.456Z,2.23
2019-03-10T04:14:32.015Z,1.97
2019-03-10T04:17:00.315Z,1.63
2019-03-10T04:19:28.631Z,1.67
2019-03-10T04:21:57.373Z,1.37
2019-03-10T04:24:25.669Z,1.73
2019-03-10T04:26:54.634Z,2.40
2019-03-10T04:29:23.385Z,2.17
2019-03-10T04:31:52.125Z,2.07
2019-03-10T04:34:20.871Z,1.97
2019-03-10T04:36:49.173Z,1.47
2019-03-10T04:39:17.473Z,1.63
2019-03-10T04:41:46.225Z,2.17
2019-03-10T04:44:14.961Z,1.40
2019-03-10T04:46:43.285Z,2.17
2019-03-10T04:49:11.573Z,1.67
2019-03-10T04:51:40.323Z,1.37
2019-03-10T04:54:08.620Z,1.37
2019-03-10T04:56:49.865Z,1.57
2019-03-10T04:59:18.589Z,1.60
2019-03-10T05:01:47.589Z,1.87
2019-03-10T05:04:16.410Z,1.50
2019-03-10T05:06:45.148Z,1.93
2019-03-10T05:09:13.557Z,1.47
2019-03-10T05:11:42.403Z,1.40
2019-03-10T05:14:10.704Z,1.20
2019-03-10T05:16:39.020Z,1.47
2019-03-10T05:19:07.362Z,1.00
2019-03-10T05:21:36.129Z,1.43
2019-03-10T05:24:10.169Z,1.53
2019-03-10T05:26:38.929Z,1.60
2019-03-10T05:29:07.752Z,1.47
2019-03-10T05:31:36.513Z,1.07
2019-03-10T05:34:05.639Z,0.83
2019-03-10T05:36:34.724Z,1.60
2019-03-10T05:39:05.006Z,1.43
2019-03-10T05:41:33.293Z,1.67
2019-03-10T05:44:01.595Z,1.13
2019-03-10T05:46:29.911Z,1.83
2019-03-10T05:48:58.681Z,1.83
2019-03-10T05:51:27.441Z,1.40
2019-03-10T05:53:56.177Z,1.53
2019-03-10T05:56:24.474Z,1.17
2019-03-10T05:58:53.241Z,2.17
2019-03-10T06:01:22.310Z,1.70
2019-03-10T06:03:51.135Z,1.20
2019-03-10T06:06:19.454Z,0.97
2019-03-10T06:08:47.765Z,1.87
2019-03-10T06:11:16.737Z,1.80
2019-03-10T06:13:45.570Z,1.60
2019-03-10T06:16:13.868Z,1.70
2019-03-10T06:18:42.626Z,1.87
2019-03-10T06:21:11.389Z,1.33
2019-03-10T06:23:40.142Z,1.27
2019-03-10T06:26:08.910Z,1.63
2019-03-10T06:28:37.242Z,1.37
2019-03-10T06:31:06.065Z,1.90
2019-03-10T06:33:34.377Z,2.13
2019-03-10T06:36:03.211Z,2.13
2019-03-10T06:38:31.529Z,2.20
2019-03-10T06:40:59.834Z,2.70
2019-03-10T06:43:28.598Z,2.43
2019-03-10T06:45:57.347Z,2.87
2019-03-10T06:48:25.669Z,2.70
2019-03-10T06:50:54.414Z,2.07
2019-03-10T06:53:23.273Z,1.97
2019-03-10T06:55:51.813Z,1.33
2019-03-10T06:58:20.649Z,2.90
2019-03-10T07:00:49.413Z,1.83
2019-03-10T07:03:18.177Z,2.27
2019-03-10T07:05:46.914Z,1.27
2019-03-10T07:08:15.705Z,1.77
2019-03-10T07:10:44.546Z,1.50
2019-03-10T07:13:13.386Z,2.13
2019-03-10T07:15:41.673Z,1.43
2019-03-10T07:18:09.984Z,1.80
2019-03-10T07:20:38.746Z,2.17
2019-03-10T07:23:10.669Z,1.30
2019-03-10T07:25:39.681Z,1.80
2019-03-10T07:28:40.184Z,1.50
2019-03-10T07:31:20.506Z,1.20
2019-03-10T07:33:55.342Z,1.10
2019-03-10T07:36:49.245Z,0.93
2019-03-10T07:39:36.828Z,1.40
2019-03-10T07:42:19.259Z,1.10
2019-03-10T07:45:06.737Z,0.90
2019-03-10T07:47:46.961Z,1.00
2019-03-10T07:50:26.706Z,1.43
2019-03-10T07:53:14.532Z,1.07
2019-03-10T07:55:58.277Z,0.80
2019-03-10T07:58:44.917Z,0.80
2019-03-10T08:01:42.017Z,0.90
2019-03-10T08:04:30.118Z,0.80
2019-03-10T08:07:06.924Z,0.90
2019-03-10T08:09:42.817Z,1.10
2019-03-10T08:12:39.812Z,1.10
2019-03-10T08:15:25.333Z,0.50
2019-03-10T08:18:13.179Z,0.90
2019-03-10T08:21:01.090Z,0.83
2019-03-10T08:23:49.337Z,0.77
2019-03-10T08:26:37.392Z,0.80
2019-03-10T08:29:34.305Z,0.70
2019-03-10T08:32:37.381Z,0.80
2019-03-10T08:35:28.324Z,0.53
2019-03-10T08:38:17.517Z,0.40
2019-03-10T08:40:52.768Z,0.63
2019-03-10T08:43:59.111Z,0.43
2019-03-10T08:47:04.538Z,0.47
2019-03-10T08:49:50.369Z,0.70
2019-03-10T08:52:41.478Z,0.70
2019-03-10T08:55:32.632Z,0.40
2019-03-10T08:58:09.257Z,0.40
2019-03-10T09:00:49.300Z,0.40
2019-03-10T09:03:45.921Z,0.50
2019-03-10T09:06:28.903Z,1.67
2019-03-10T09:09:26.193Z,1.60
2019-03-10T09:12:04.029Z,1.00
2019-03-10T09:14:57.926Z,0.70
2019-03-10T09:17:44.477Z,0.40
2019-03-10T09:20:29.074Z,0.50
2019-03-10T09:23:07.883Z,0.37
2019-03-10T09:26:04.622Z,0.50
2019-03-10T09:28:45.805Z,0.93
2019-03-10T09:31:24.273Z,0.60
2019-03-10T09:34:11.446Z,0.50
2019-03-10T09:36:56.745Z,0.57
2019-03-10T09:39:35.862Z,0.27
2019-03-10T09:42:18.920Z,0.40
2019-03-10T09:45:09.841Z,0.60
2019-03-10T09:48:00.853Z,0.40
2019-03-10T09:50:39.625Z,0.53
2019-03-10T09:53:26.477Z,0.30
2019-03-10T09:56:13.385Z,0.57
2019-03-10T09:58:51.234Z,0.50
2019-03-10T10:01:26.596Z,0.60
2019-03-10T10:04:26.913Z,0.47
2019-03-10T10:07:08.799Z,0.30
2019-03-10T10:09:56.285Z,0.30
2019-03-10T10:12:52.798Z,0.40
2019-03-10T10:15:55.838Z,0.20
2019-03-10T10:18:34.528Z,0.87
2019-03-10T10:21:11.778Z,0.60
2019-03-10T10:23:46.523Z,0.70
2019-03-10T10:26:31.925Z,0.50
2019-03-10T10:29:32.009Z,0.60
2019-03-10T10:32:19.913Z,0.60
2019-03-10T10:34:55.985Z,0.60
2019-03-10T10:37:46.696Z,0.77
2019-03-10T10:40:49.822Z,0.67
2019-03-10T10:43:46.543Z,0.73
2019-03-10T10:46:32.486Z,0.80
2019-03-10T10:49:07.006Z,1.17
2019-03-10T10:52:04.246Z,0.50
2019-03-10T10:54:45.008Z,0.67
2019-03-10T10:57:23.993Z,0.77
2019-03-10T11:00:02.043Z,0.77
2019-03-10T11:02:49.005Z,0.60
2019-03-10T11:05:27.352Z,1.10
2019-03-10T11:11:29.695Z,1.60
2019-03-10T11:14:12.988Z,1.03
2019-03-10T11:17:01.323Z,0.50
2019-03-10T11:19:47.126Z,1.13
2019-03-10T11:22:33.556Z,1.47
2019-03-10T11:25:14.869Z,0.80
2019-03-10T11:27:49.855Z,1.43
2019-03-10T11:30:58.042Z,0.77
2019-03-10T11:33:43.302Z,0.93
2019-03-10T11:36:31.161Z,0.93
2019-03-10T11:39:08.866Z,1.03
2019-03-10T11:42:08.909Z,1.17
2019-03-10T11:44:46.975Z,1.10
2019-03-10T11:47:25.442Z,0.93
2019-03-10T11:50:08.526Z,1.63
2019-03-10T11:52:51.537Z,1.20
2019-03-10T11:55:38.383Z,0.90
2019-03-10T11:58:22.685Z,1.60
2019-03-10T12:01:06.320Z,1.37
2019-03-10T12:03:55.650Z,1.73
2019-03-10T12:06:46.568Z,1.47
2019-03-10T12:09:20.641Z,0.90
2019-03-10T12:11:50.055Z,1.77
2019-03-10T12:14:18.870Z,1.70
2019-03-10T12:16:47.257Z,1.03
2019-03-10T12:19:15.598Z,1.27
2019-03-10T12:21:43.941Z,2.00
2019-03-10T12:24:12.768Z,1.63
2019-03-10T12:26:41.609Z,1.03
2019-03-10T12:29:10.381Z,1.60
2019-03-10T12:31:39.151Z,1.57
2019-03-10T12:34:08.037Z,1.00
2019-03-10T12:36:37.159Z,0.93
2019-03-10T12:39:07.065Z,1.90
2019-03-10T12:41:35.373Z,0.93
2019-03-10T12:44:03.755Z,1.53
2019-03-10T12:46:32.829Z,1.37
2019-03-10T12:49:01.832Z,2.10
2019-03-10T12:51:30.573Z,0.43
2019-03-10T12:53:59.416Z,1.73
2019-03-10T12:56:28.369Z,0.80
2019-03-10T12:58:56.732Z,0.80
2019-03-10T13:01:27.740Z,1.03
2019-03-10T13:03:59.214Z,0.83
2019-03-10T13:06:27.063Z,1.23
2019-03-10T13:08:55.341Z,1.10
2019-03-10T13:11:23.650Z,0.90
2019-03-10T13:13:51.995Z,1.23
2019-03-10T13:16:20.778Z,1.00
2019-03-10T13:18:49.594Z,1.30
2019-03-10T13:21:18.838Z,1.23
2019-03-10T13:23:47.680Z,0.70
2019-03-10T13:26:16.490Z,0.90
2019-03-10T13:28:45.360Z,0.60
2019-03-10T13:31:13.918Z,1.50
2019-03-10T13:33:42.261Z,1.17
2019-03-10T13:36:11.013Z,1.50
2019-03-10T13:38:39.434Z,0.90
2019-03-10T13:41:07.744Z,1.27
2019-03-10T13:43:36.492Z,1.10
2019-03-10T13:46:05.397Z,0.93
2019-03-10T13:48:33.721Z,1.13
2019-03-10T13:51:02.485Z,1.17
2019-03-10T13:53:31.313Z,1.20
2019-03-10T13:55:59.710Z,0.80
2019-03-10T13:58:28.466Z,0.50
2019-03-10T14:00:56.768Z,0.93
2019-03-10T14:03:25.594Z,1.00
2019-03-10T14:05:54.540Z,0.70
2019-03-10T14:08:23.350Z,0.70
2019-03-10T14:10:51.650Z,0.90
2019-03-10T14:13:19.993Z,1.20
2019-03-10T14:15:48.759Z,0.43
2019-03-10T14:18:17.845Z,0.93
2019-03-10T14:20:46.693Z,0.83
2019-03-10T14:23:15.445Z,1.63
2019-03-10T14:25:44.690Z,0.60
2019-03-10T14:28:13.519Z,0.37
2019-03-10T14:30:42.379Z,1.13
2019-03-10T14:33:11.209Z,0.50
2019-03-10T14:35:39.533Z,0.50
2019-03-10T14:38:07.962Z,0.40
2019-03-10T14:40:36.884Z,0.40
2019-03-10T14:43:06.059Z,0.50
2019-03-10T14:45:34.846Z,0.50
2019-03-10T14:48:03.785Z,0.63
2019-03-10T14:50:32.246Z,0.60
2019-03-10T14:53:01.057Z,0.37
2019-03-10T14:55:29.869Z,0.40
2019-03-10T14:57:58.769Z,0.43
2019-03-10T15:00:27.663Z,0.70
2019-03-10T15:02:56.569Z,0.50
2019-03-10T15:05:24.950Z,0.50
2019-03-10T15:07:53.345Z,0.80
2019-03-10T15:10:21.653Z,0.60
2019-03-10T15:12:50.487Z,0.67
2019-03-10T15:15:22.710Z,0.93
2019-03-10T15:17:50.053Z,0.37
2019-03-10T15:20:21.685Z,0.70
2019-03-10T15:22:50.433Z,0.80
2019-03-10T15:25:19.318Z,0.77
2019-03-10T15:27:48.177Z,0.57
2019-03-10T15:30:17.501Z,0.63
2019-03-10T15:32:46.587Z,0.53
2019-03-10T15:35:15.585Z,0.60
2019-03-10T15:37:44.042Z,0.73
2019-03-10T15:40:13.110Z,0.60
2019-03-10T15:42:41.974Z,0.40
2019-03-10T15:45:12.192Z,1.40
2019-03-10T15:47:43.870Z,0.50
2019-03-10T15:50:19.308Z,0.43
2019-03-10T15:52:51.255Z,0.70
2019-03-10T15:55:20.805Z,0.40
2019-03-10T15:57:51.060Z,0.60
2019-03-10T16:00:20.491Z,0.50
2019-03-10T16:02:49.734Z,0.53
2019-03-10T16:05:18.923Z,0.50
2019-03-10T16:07:47.371Z,0.73
2019-03-10T16:10:15.814Z,0.60
2019-03-10T16:12:44.834Z,0.50
2019-03-10T16:15:13.845Z,0.57
2019-03-10T16:17:42.767Z,0.47
2019-03-10T16:20:12.333Z,0.60
2019-03-10T16:22:41.102Z,0.50
2019-03-10T16:25:11.686Z,0.37
2019-03-10T16:27:40.514Z,0.60
2019-03-10T16:30:15.432Z,0.70
2019-03-10T16:32:45.103Z,0.50
2019-03-10T16:35:14.118Z,0.53
2019-03-10T16:37:42.877Z,0.50
2019-03-10T16:40:13.425Z,0.40
2019-03-10T16:42:41.748Z,0.30
2019-03-10T16:45:11.761Z,0.50
2019-03-10T16:47:40.101Z,0.80
2019-03-10T16:50:10.332Z,0.30
2019-03-10T16:52:39.313Z,0.70
2019-03-10T16:55:08.270Z,0.50
2019-03-10T16:57:37.089Z,0.50
2019-03-10T17:00:05.585Z,0.53
2019-03-10T17:02:33.888Z,0.80
2019-03-10T17:05:02.642Z,0.50
2019-03-10T17:07:30.940Z,0.90
2019-03-10T17:09:59.280Z,0.80
2019-03-10T17:12:27.977Z,1.00
2019-03-10T17:14:56.333Z,0.70
2019-03-10T17:17:25.097Z,0.77
2019-03-10T17:19:53.905Z,1.37
2019-03-10T17:22:22.649Z,0.80
2019-03-10T17:24:51.423Z,0.90
2019-03-10T17:27:20.218Z,0.60
2019-03-10T17:29:48.993Z,0.70
2019-03-10T17:32:17.328Z,0.80
2019-03-10T17:34:45.657Z,0.80
2019-03-10T17:37:14.066Z,1.07
2019-03-10T17:39:43.066Z,0.50
2019-03-10T17:42:11.813Z,0.53
2019-03-10T17:44:41.493Z,0.70
2019-03-10T17:47:10.245Z,0.60
2019-03-10T17:49:39.058Z,0.83
2019-03-10T17:52:14.342Z,0.60
2019-03-10T17:54:38.341Z,0.70
2019-03-10T17:57:07.329Z,1.00
2019-03-10T17:59:36.102Z,1.00
2019-03-10T18:02:09.046Z,0.63
2019-03-10T18:04:35.085Z,1.20
2019-03-10T18:07:03.598Z,0.73
2019-03-10T18:09:32.358Z,0.80
2019-03-10T18:12:00.674Z,0.60
2019-03-10T18:14:29.489Z,0.67
2019-03-10T18:16:57.873Z,1.03
2019-03-10T18:19:26.620Z,0.87
2019-03-10T18:21:55.193Z,0.93
2019-03-10T18:24:23.521Z,0.60
2019-03-10T18:26:52.287Z,0.93
2019-03-10T18:29:20.580Z,0.90
2019-03-10T18:31:48.888Z,1.17
2019-03-10T18:34:17.649Z,0.90
2019-03-10T18:36:45.966Z,0.80
2019-03-10T18:39:14.714Z,1.33
2019-03-10T18:41:43.562Z,0.83
2019-03-10T18:44:12.105Z,1.10
2019-03-10T18:46:40.881Z,0.97
2019-03-10T18:49:09.621Z,1.03
2019-03-10T18:51:37.945Z,0.77
2019-03-10T18:54:06.257Z,0.63
2019-03-10T18:56:35.021Z,1.20
2019-03-10T18:59:04.954Z,0.70
2019-03-10T19:01:33.801Z,1.10
2019-03-10T19:04:06.011Z,1.07
2019-03-10T19:06:34.869Z,1.20
2019-03-10T19:09:06.465Z,0.70
2019-03-10T19:11:34.789Z,0.60
2019-03-10T19:14:03.081Z,1.13
2019-03-10T19:16:31.862Z,0.80
2019-03-10T19:19:00.182Z,0.70
2019-03-10T19:21:28.953Z,0.60
2019-03-10T19:23:57.898Z,0.60
2019-03-10T19:26:26.908Z,0.80
2019-03-10T19:28:55.656Z,0.90
2019-03-10T19:31:24.491Z,0.87
2019-03-10T19:33:53.245Z,0.73
2019-03-10T19:36:21.678Z,0.83
2019-03-10T19:38:50.461Z,0.47
2019-03-10T19:41:19.289Z,1.27
2019-03-10T19:43:47.618Z,0.70
2019-03-10T19:46:16.481Z,0.60
2019-03-10T19:48:45.269Z,0.43
2019-03-10T19:51:14.035Z,0.90
2019-03-10T19:53:42.825Z,0.77
2019-03-10T19:56:11.576Z,0.80
2019-03-10T19:58:40.389Z,0.53
2019-03-10T20:01:09.166Z,0.70
2019-03-10T20:03:38.217Z,0.60
2019-03-10T20:06:07.017Z,0.70
2019-03-10T20:08:35.775Z,0.70
2019-03-10T20:11:05.957Z,0.97
2019-03-10T20:13:34.285Z,0.50
2019-03-10T20:16:03.130Z,0.90
2019-03-10T20:18:31.895Z,0.87
2019-03-10T20:21:00.651Z,1.00
2019-03-10T20:23:29.425Z,0.77
2019-03-10T20:25:58.173Z,0.60
2019-03-10T20:28:26.949Z,0.50
2019-03-10T20:30:55.957Z,0.50
2019-03-10T20:33:24.984Z,0.60
2019-03-10T20:35:56.178Z,0.70
2019-03-10T20:38:24.946Z,0.93
2019-03-10T20:40:53.721Z,0.60
2019-03-10T20:43:22.493Z,0.80
2019-03-10T20:45:50.798Z,0.70
2019-03-10T20:48:19.547Z,0.77
2019-03-10T20:50:48.381Z,0.90
2019-03-10T20:53:17.395Z,0.67
2019-03-10T20:55:45.729Z,1.00
2019-03-10T20:58:14.072Z,1.00
2019-03-10T21:00:42.989Z,1.23
2019-03-10T21:03:11.806Z,0.50
2019-03-10T21:05:40.602Z,0.67
2019-03-10T21:08:09.354Z,0.60
2019-03-10T21:10:38.318Z,0.60
2019-03-10T21:13:06.693Z,0.63
2019-03-10T21:15:35.516Z,0.65
2019-03-10T21:18:04.388Z,1.67
2019-03-10T21:20:32.856Z,0.60
2019-03-10T21:23:01.655Z,1.00
2019-03-10T21:25:30.449Z,0.70
2019-03-10T21:27:59.197Z,0.78
2019-03-10T21:30:28.150Z,0.90
2019-03-10T21:32:56.925Z,0.70
2019-03-10T21:35:25.366Z,0.72
2019-03-10T21:37:53.736Z,0.88
2019-03-10T21:40:22.497Z,1.05
2019-03-10T21:42:51.263Z,1.50
2019-03-10T21:45:20.169Z,0.88
2019-03-10T21:47:49.165Z,1.00
2019-03-10T21:50:18.328Z,1.20
2019-03-10T21:52:46.719Z,1.00
2019-03-10T21:55:15.206Z,1.07
2019-03-10T21:57:43.973Z,1.50
2019-03-10T22:00:13.685Z,1.25
2019-03-10T22:02:42.717Z,0.80
2019-03-10T22:05:13.735Z,0.93
2019-03-10T22:07:42.114Z,1.15
2019-03-10T22:10:11.194Z,1.32
2019-03-10T22:12:39.566Z,0.93
2019-03-10T22:15:08.872Z,0.90
2019-03-10T22:17:37.197Z,1.00
2019-03-10T22:20:06.682Z,0.98
2019-03-10T22:22:37.088Z,1.25
2019-03-10T22:25:12.898Z,1.50
2019-03-10T22:27:36.691Z,1.05
2019-03-10T22:30:05.097Z,1.22
2019-03-10T22:32:33.868Z,1.57
2019-03-10T22:35:02.185Z,0.93
2019-03-10T22:37:31.534Z,1.35
2019-03-10T22:39:59.820Z,0.88
2019-03-10T22:42:28.433Z,0.85
2019-03-10T22:44:57.193Z,2.20
2019-03-10T22:47:25.529Z,1.47
2019-03-10T22:49:53.853Z,1.98
2019-03-10T22:52:22.221Z,1.47
2019-03-10T22:54:51.015Z,1.37
2019-03-10T22:57:19.770Z,1.37
2019-03-10T22:59:48.609Z,1.10
2019-03-10T23:02:16.942Z,1.22
2019-03-10T23:04:45.582Z,1.40
2019-03-10T23:07:14.423Z,0.85
2019-03-10T23:10:02.830Z,1.67
2019-03-10T23:12:31.153Z,1.15
2019-03-10T23:14:59.457Z,1.20
2019-03-10T23:17:27.769Z,1.02
2019-03-10T23:19:56.537Z,0.88
2019-03-10T23:22:24.848Z,0.90
2019-03-10T23:24:53.593Z,1.05
2019-03-10T23:27:22.458Z,1.10
2019-03-10T23:29:51.553Z,0.82
2019-03-10T23:32:19.871Z,0.68
2019-03-10T23:34:48.194Z,0.50
2019-03-10T23:37:17.173Z,1.00
2019-03-10T23:39:45.474Z,0.80
2019-03-10T23:42:13.781Z,0.70
2019-03-10T23:44:42.581Z,1.57
2019-03-10T23:47:11.386Z,1.20
2019-03-10T23:49:40.151Z,1.40
2019-03-10T23:52:08.556Z,0.75
2019-03-10T23:54:36.885Z,1.60
2019-03-10T23:57:05.721Z,1.50
2019-03-10T23:59:34.025Z,1.45
